createdAt,value
2022-11-25T00:00:03.086Z,977.22
2022-11-25T00:01:03.191Z,977.20
2022-11-25T00:02:03.173Z,977.28
2022-11-25T00:03:03.113Z,977.25
2022-11-25T00:04:02.959Z,977.28
2022-11-25T00:05:02.996Z,977.26
2022-11-25T00:06:03.051Z,977.26
2022-11-25T00:07:02.882Z,977.45
2022-11-25T00:08:02.921Z,977.34
2022-11-25T00:09:03.793Z,977.32
2022-11-25T00:10:03.771Z,977.43
2022-11-25T00:11:03.733Z,977.26
2022-11-25T00:12:03.634Z,977.24
2022-11-25T00:13:03.744Z,977.29
2022-11-25T00:14:03.641Z,977.07
2022-11-25T00:15:03.518Z,977.10
2022-11-25T00:16:03.617Z,977.10
2022-11-25T00:17:03.660Z,977.24
2022-11-25T00:18:03.571Z,977.19
2022-11-25T00:19:03.514Z,977.13
2022-11-25T00:20:03.377Z,977.22
2022-11-25T00:21:03.463Z,977.25
2022-11-25T00:22:03.534Z,977.19
2022-11-25T00:23:03.420Z,977.28
2022-11-25T00:24:03.295Z,977.16
2022-11-25T00:25:03.298Z,977.28
2022-11-25T00:26:03.288Z,977.14
2022-11-25T00:27:03.217Z,977.25
2022-11-25T00:28:03.165Z,977.08
2022-11-25T00:29:03.247Z,977.14
2022-11-25T00:30:03.164Z,977.20
2022-11-25T00:31:03.088Z,977.20
2022-11-25T00:32:03.304Z,977.09
2022-11-25T00:33:03.135Z,977.09
2022-11-25T00:34:03.018Z,977.17
2022-11-25T00:35:03.071Z,977.11
2022-11-25T00:36:02.979Z,977.11
2022-11-25T00:37:02.994Z,977.11
2022-11-25T00:38:02.975Z,977.03
2022-11-25T00:39:02.905Z,977.06
2022-11-25T00:40:02.869Z,977.14
2022-11-25T00:41:03.825Z,977.03
2022-11-25T00:42:03.775Z,977.06
2022-11-25T00:43:03.815Z,977.06
2022-11-25T00:44:03.712Z,977.06
2022-11-25T00:45:03.759Z,977.06
2022-11-25T00:46:03.831Z,977.09
2022-11-25T00:47:03.713Z,977.06
2022-11-25T00:48:03.615Z,976.95
2022-11-25T00:49:03.514Z,977.12
2022-11-25T00:50:03.584Z,977.15
2022-11-25T00:51:03.427Z,977.06
2022-11-25T00:52:03.416Z,977.09
2022-11-25T00:53:03.309Z,977.01
2022-11-25T00:54:03.363Z,976.98
2022-11-25T00:55:03.350Z,977.01
2022-11-25T00:56:03.384Z,977.01
2022-11-25T00:57:03.369Z,977.09
2022-11-25T00:58:03.296Z,977.23
2022-11-25T00:59:03.198Z,977.29
2022-11-25T01:00:03.219Z,977.10
2022-11-25T01:01:03.262Z,977.04
2022-11-25T01:02:03.191Z,976.98
2022-11-25T01:03:03.080Z,977.24
2022-11-25T01:04:03.140Z,977.15
2022-11-25T01:05:03.269Z,977.26
2022-11-25T01:06:03.196Z,977.15
2022-11-25T01:07:03.139Z,977.10
2022-11-25T01:08:03.062Z,977.13
2022-11-25T01:09:03.038Z,977.13
2022-11-25T01:10:03.232Z,977.10
2022-11-25T01:11:03.157Z,977.13
2022-11-25T01:12:03.366Z,977.10
2022-11-25T01:13:03.300Z,977.19
2022-11-25T01:14:03.202Z,977.02
2022-11-25T01:15:03.083Z,977.24
2022-11-25T01:16:03.261Z,977.08
2022-11-25T01:17:03.205Z,977.13
2022-11-25T01:18:03.100Z,977.14
2022-11-25T01:19:03.263Z,977.14
2022-11-25T01:20:03.346Z,977.08
2022-11-25T01:21:03.375Z,977.28
2022-11-25T01:22:03.456Z,977.00
2022-11-25T01:23:03.390Z,977.11
2022-11-25T01:24:03.320Z,977.19
2022-11-25T01:25:03.231Z,977.11
2022-11-25T01:26:03.256Z,977.17
2022-11-25T01:27:03.321Z,977.17
2022-11-25T01:28:03.206Z,977.17
2022-11-25T01:29:03.152Z,977.06
2022-11-25T01:30:03.230Z,977.08
2022-11-25T01:31:03.126Z,977.11
2022-11-25T01:32:03.334Z,977.03
2022-11-25T01:33:03.074Z,977.14
2022-11-25T01:34:03.083Z,977.11
2022-11-25T01:35:03.092Z,977.17
2022-11-25T01:36:02.991Z,977.09
2022-11-25T01:37:02.850Z,977.12
2022-11-25T01:38:02.876Z,977.09
2022-11-25T01:39:02.909Z,977.09
2022-11-25T01:40:02.905Z,977.12
2022-11-25T01:41:03.854Z,977.09
2022-11-25T01:42:03.776Z,977.23
2022-11-25T01:43:03.877Z,977.20
2022-11-25T01:44:03.857Z,977.18
2022-11-25T01:45:03.799Z,977.12
2022-11-25T01:46:03.901Z,977.15
2022-11-25T01:47:03.736Z,977.26
2022-11-25T01:48:03.739Z,977.07
2022-11-25T01:49:03.861Z,977.04
2022-11-25T01:50:03.784Z,977.09
2022-11-25T01:51:03.168Z,977.10
2022-11-25T01:52:03.201Z,976.98
2022-11-25T01:53:03.179Z,976.96
2022-11-25T01:54:03.057Z,976.99
2022-11-25T01:55:03.230Z,977.07
2022-11-25T01:56:03.124Z,977.07
2022-11-25T01:57:03.014Z,977.05
2022-11-25T01:58:02.988Z,976.99
2022-11-25T01:59:02.889Z,977.02
2022-11-25T02:00:03.861Z,977.08
2022-11-25T02:01:03.896Z,977.24
2022-11-25T02:02:03.831Z,977.05
2022-11-25T02:03:03.836Z,976.99
2022-11-25T02:04:03.741Z,977.08
2022-11-25T02:05:03.773Z,977.16
2022-11-25T02:06:03.719Z,977.19
2022-11-25T02:07:03.657Z,977.16
2022-11-25T02:08:03.538Z,977.05
2022-11-25T02:09:03.543Z,977.19
2022-11-25T02:10:03.472Z,977.19
2022-11-25T02:11:03.453Z,977.11
2022-11-25T02:12:03.387Z,977.19
2022-11-25T02:13:03.342Z,977.25
2022-11-25T02:14:03.372Z,977.25
2022-11-25T02:15:03.399Z,977.17
2022-11-25T02:16:03.534Z,977.25
2022-11-25T02:17:03.319Z,977.14
2022-11-25T02:18:03.373Z,977.28
2022-11-25T02:19:03.329Z,977.14
2022-11-25T02:20:03.284Z,977.08
2022-11-25T02:21:03.174Z,977.03
2022-11-25T02:22:03.095Z,977.11
2022-11-25T02:23:03.171Z,977.08
2022-11-25T02:24:03.072Z,977.09
2022-11-25T02:25:03.002Z,977.00
2022-11-25T02:26:03.073Z,977.06
2022-11-25T02:27:02.912Z,977.12
2022-11-25T02:28:02.851Z,976.98
2022-11-25T02:29:02.882Z,977.17
2022-11-25T02:30:02.967Z,976.98
2022-11-25T02:31:03.408Z,976.98
2022-11-25T02:32:03.488Z,977.12
2022-11-25T02:33:03.276Z,977.12
2022-11-25T02:34:03.149Z,976.95
2022-11-25T02:35:03.175Z,976.98
2022-11-25T02:36:03.161Z,976.92
2022-11-25T02:37:03.119Z,976.89
2022-11-25T02:38:03.042Z,976.87
2022-11-25T02:39:02.954Z,976.89
2022-11-25T02:40:02.993Z,976.81
2022-11-25T02:41:02.889Z,976.81
2022-11-25T02:42:02.921Z,976.90
2022-11-25T02:43:03.886Z,976.87
2022-11-25T02:44:03.843Z,976.92
2022-11-25T02:45:03.812Z,976.92
2022-11-25T02:46:03.829Z,976.90
2022-11-25T02:47:03.798Z,977.07
2022-11-25T02:48:03.816Z,976.90
2022-11-25T02:49:10.961Z,976.98
2022-11-25T02:50:03.667Z,977.07
2022-11-25T02:51:03.597Z,977.07
2022-11-25T02:52:03.547Z,977.04
2022-11-25T02:53:03.406Z,977.10
2022-11-25T02:54:03.480Z,977.13
2022-11-25T02:55:03.348Z,977.04
2022-11-25T02:56:03.404Z,977.01
2022-11-25T02:57:03.327Z,976.93
2022-11-25T02:58:03.414Z,977.02
2022-11-25T02:59:03.346Z,977.18
2022-11-25T03:00:03.391Z,977.04
2022-11-25T03:01:03.550Z,977.10
2022-11-25T03:02:03.596Z,977.18
2022-11-25T03:03:03.441Z,977.13
2022-11-25T03:04:03.302Z,976.99
2022-11-25T03:05:03.238Z,977.02
2022-11-25T03:06:03.338Z,977.02
2022-11-25T03:07:03.425Z,977.08
2022-11-25T03:08:03.335Z,976.99
2022-11-25T03:09:03.371Z,977.10
2022-11-25T03:10:03.223Z,976.83
2022-11-25T03:11:03.189Z,976.83
2022-11-25T03:12:03.106Z,976.91
2022-11-25T03:13:03.033Z,976.94
2022-11-25T03:14:03.020Z,976.86
2022-11-25T03:15:02.894Z,977.02
2022-11-25T03:16:04.019Z,976.94
2022-11-25T03:17:03.856Z,976.91
2022-11-25T03:18:03.725Z,976.97
2022-11-25T03:19:03.770Z,976.94
2022-11-25T03:20:03.787Z,977.14
2022-11-25T03:21:02.851Z,977.02
2022-11-25T03:22:03.826Z,976.94
2022-11-25T03:23:03.768Z,976.94
2022-11-25T03:24:03.822Z,977.03
2022-11-25T03:25:03.776Z,977.03
2022-11-25T03:26:03.851Z,977.05
2022-11-25T03:27:03.778Z,977.11
2022-11-25T03:28:03.665Z,976.89
2022-11-25T03:29:03.693Z,977.00
2022-11-25T03:30:03.575Z,977.00
2022-11-25T03:31:03.507Z,977.00
2022-11-25T03:32:09.767Z,976.89
2022-11-25T03:33:03.414Z,977.00
2022-11-25T03:34:03.469Z,976.94
2022-11-25T03:35:03.503Z,976.97
2022-11-25T03:36:03.506Z,976.94
2022-11-25T03:37:03.567Z,976.89
2022-11-25T03:38:03.378Z,977.03
2022-11-25T03:39:03.384Z,976.95
2022-11-25T03:40:03.490Z,976.75
2022-11-25T03:41:03.412Z,976.81
2022-11-25T03:42:03.341Z,976.75
2022-11-25T03:43:03.278Z,976.86
2022-11-25T03:44:03.338Z,976.84
2022-11-25T03:45:03.353Z,976.78
2022-11-25T03:46:03.436Z,976.84
2022-11-25T03:47:03.353Z,976.83
2022-11-25T03:48:03.253Z,976.95
2022-11-25T03:49:03.226Z,976.94
2022-11-25T03:50:03.190Z,976.81
2022-11-25T03:51:03.065Z,976.94
2022-11-25T03:52:03.149Z,976.83
2022-11-25T03:53:03.100Z,976.80
2022-11-25T03:54:03.069Z,976.78
2022-11-25T03:55:03.023Z,976.91
2022-11-25T03:56:02.932Z,976.94
2022-11-25T03:57:02.872Z,976.75
2022-11-25T03:58:03.899Z,976.75
2022-11-25T03:59:03.801Z,976.77
2022-11-25T04:00:02.866Z,976.88
2022-11-25T04:01:02.992Z,976.89
2022-11-25T04:02:03.036Z,976.74
2022-11-25T04:03:03.832Z,976.83
2022-11-25T04:04:03.730Z,976.97
2022-11-25T04:05:03.707Z,976.88
2022-11-25T04:06:03.616Z,977.08
2022-11-25T04:07:03.598Z,976.83
2022-11-25T04:08:03.713Z,976.80
2022-11-25T04:09:03.453Z,976.74
2022-11-25T04:10:03.572Z,976.91
2022-11-25T04:11:03.496Z,976.93
2022-11-25T04:12:03.443Z,976.88
2022-11-25T04:13:03.484Z,976.79
2022-11-25T04:14:03.418Z,976.82
2022-11-25T04:15:03.420Z,976.82
2022-11-25T04:16:03.326Z,976.90
2022-11-25T04:17:03.549Z,976.82
2022-11-25T04:18:03.314Z,976.84
2022-11-25T04:19:03.374Z,976.90
2022-11-25T04:20:03.402Z,977.09
2022-11-25T04:21:03.286Z,976.84
2022-11-25T04:22:02.959Z,976.95
2022-11-25T04:23:02.977Z,976.93
2022-11-25T04:24:03.006Z,976.96
2022-11-25T04:25:02.945Z,977.01
2022-11-25T04:26:03.010Z,976.93
2022-11-25T04:27:03.013Z,977.01
2022-11-25T04:28:02.965Z,977.07
2022-11-25T04:29:02.991Z,976.93
2022-11-25T04:30:03.009Z,976.99
2022-11-25T04:31:03.019Z,976.96
2022-11-25T04:32:03.023Z,976.90
2022-11-25T04:33:02.968Z,976.96
2022-11-25T04:34:02.909Z,976.82
2022-11-25T04:35:02.933Z,976.85
2022-11-25T04:36:03.836Z,976.85
2022-11-25T04:37:03.801Z,976.96
2022-11-25T04:38:03.930Z,976.88
2022-11-25T04:39:03.780Z,976.90
2022-11-25T04:40:03.791Z,976.85
2022-11-25T04:41:03.705Z,977.02
2022-11-25T04:42:03.731Z,976.99
2022-11-25T04:43:10.844Z,977.04
2022-11-25T04:44:03.776Z,976.96
2022-11-25T04:45:23.960Z,976.82
2022-11-25T04:46:14.904Z,976.93
2022-11-25T04:47:03.882Z,976.93
2022-11-25T04:48:03.737Z,976.93
2022-11-25T04:49:03.639Z,976.96
2022-11-25T04:50:03.645Z,977.02
2022-11-25T04:51:03.587Z,976.93
2022-11-25T04:52:03.575Z,976.85
2022-11-25T04:53:03.443Z,976.99
2022-11-25T04:54:03.524Z,976.96
2022-11-25T04:55:03.648Z,976.99
2022-11-25T04:56:03.582Z,976.85
2022-11-25T04:57:03.605Z,976.94
2022-11-25T04:58:03.528Z,976.88
2022-11-25T04:59:03.467Z,977.08
2022-11-25T05:00:03.518Z,976.77
2022-11-25T05:01:03.597Z,976.80
2022-11-25T05:02:03.605Z,976.72
2022-11-25T05:03:03.523Z,976.74
2022-11-25T05:04:03.456Z,976.74
2022-11-25T05:05:03.571Z,976.70
2022-11-25T05:06:03.507Z,976.70
2022-11-25T05:07:03.510Z,976.70
2022-11-25T05:08:03.457Z,976.70
2022-11-25T05:09:03.423Z,976.77
2022-11-25T05:10:03.322Z,976.73
2022-11-25T05:11:03.308Z,976.91
2022-11-25T05:12:03.317Z,976.86
2022-11-25T05:13:03.220Z,976.73
2022-11-25T05:14:03.308Z,976.91
2022-11-25T05:15:03.284Z,976.83
2022-11-25T05:16:03.375Z,976.70
2022-11-25T05:17:03.499Z,976.75
2022-11-25T05:18:03.270Z,976.89
2022-11-25T05:19:03.296Z,976.83
2022-11-25T05:20:03.282Z,976.92
2022-11-25T05:21:03.273Z,976.68
2022-11-25T05:22:03.305Z,976.92
2022-11-25T05:23:03.200Z,976.92
2022-11-25T05:24:03.220Z,976.92
2022-11-25T05:25:03.397Z,976.78
2022-11-25T05:26:03.399Z,976.92
2022-11-25T05:27:03.363Z,976.95
2022-11-25T05:28:03.289Z,976.84
2022-11-25T05:29:03.337Z,976.98
2022-11-25T05:30:03.394Z,977.01
2022-11-25T05:31:03.464Z,976.81
2022-11-25T05:32:03.235Z,977.01
2022-11-25T05:33:03.246Z,976.76
2022-11-25T05:34:03.148Z,976.92
2022-11-25T05:35:03.188Z,977.06
2022-11-25T05:36:03.074Z,976.87
2022-11-25T05:37:03.185Z,977.12
2022-11-25T05:38:03.107Z,976.84
2022-11-25T05:39:03.142Z,976.90
2022-11-25T05:40:03.187Z,977.03
2022-11-25T05:41:03.230Z,977.03
2022-11-25T05:42:03.232Z,976.95
2022-11-25T05:43:03.063Z,977.03
2022-11-25T05:44:02.976Z,976.90
2022-11-25T05:45:02.980Z,976.90
2022-11-25T05:46:03.043Z,976.95
2022-11-25T05:47:02.900Z,976.92
2022-11-25T05:48:03.833Z,977.01
2022-11-25T05:49:03.898Z,976.90
2022-11-25T05:50:03.803Z,976.95
2022-11-25T05:51:03.790Z,977.15
2022-11-25T05:52:03.847Z,977.09
2022-11-25T05:53:03.826Z,976.92
2022-11-25T05:54:03.735Z,976.98
2022-11-25T05:55:03.735Z,977.09
2022-11-25T05:56:03.790Z,977.20
2022-11-25T05:57:03.877Z,977.09
2022-11-25T05:58:03.790Z,977.09
2022-11-25T05:59:03.763Z,977.03
2022-11-25T06:00:03.671Z,977.03
2022-11-25T06:01:03.731Z,977.06
2022-11-25T06:02:03.850Z,976.98
2022-11-25T06:03:04.045Z,977.01
2022-11-25T06:04:03.841Z,977.09
2022-11-25T06:05:03.746Z,976.87
2022-11-25T06:06:03.739Z,976.89
2022-11-25T06:07:03.660Z,976.95
2022-11-25T06:08:03.616Z,976.98
2022-11-25T06:09:03.710Z,976.92
2022-11-25T06:10:04.039Z,976.98
2022-11-25T06:11:03.638Z,976.87
2022-11-25T06:12:03.750Z,977.00
2022-11-25T06:13:03.748Z,976.98
2022-11-25T06:14:03.671Z,976.92
2022-11-25T06:15:03.916Z,976.98
2022-11-25T06:16:08.238Z,976.98
2022-11-25T06:17:03.858Z,976.92
2022-11-25T06:18:02.844Z,977.12
2022-11-25T06:19:02.896Z,976.87
2022-11-25T06:20:02.916Z,977.06
2022-11-25T06:21:03.225Z,977.09
2022-11-25T06:22:03.230Z,977.06
2022-11-25T06:23:03.259Z,977.09
2022-11-25T06:24:03.291Z,977.03
2022-11-25T06:25:04.417Z,977.06
2022-11-25T06:26:03.224Z,977.06
2022-11-25T06:27:03.180Z,977.06
2022-11-25T06:28:13.770Z,977.09
2022-11-25T06:29:03.106Z,977.15
2022-11-25T06:30:03.018Z,977.15
2022-11-25T06:31:03.099Z,977.09
2022-11-25T06:32:03.254Z,977.06
2022-11-25T06:33:03.255Z,977.04
2022-11-25T06:34:03.199Z,977.09
2022-11-25T06:35:03.187Z,977.09
2022-11-25T06:36:03.195Z,977.03
2022-11-25T06:37:03.091Z,977.15
2022-11-25T06:38:03.067Z,977.09
2022-11-25T06:39:03.096Z,977.15
2022-11-25T06:40:02.986Z,977.17
2022-11-25T06:41:02.887Z,977.20
2022-11-25T06:42:02.923Z,977.09
2022-11-25T06:43:02.898Z,977.20
2022-11-25T06:44:02.920Z,977.26
2022-11-25T06:45:03.918Z,977.23
2022-11-25T06:46:03.961Z,977.17
2022-11-25T06:47:03.741Z,977.20
2022-11-25T06:48:03.661Z,977.23
2022-11-25T06:49:03.559Z,977.20
2022-11-25T06:50:03.676Z,977.20
2022-11-25T06:51:03.551Z,977.28
2022-11-25T06:52:03.653Z,977.12
2022-11-25T06:53:03.627Z,977.31
2022-11-25T06:54:03.685Z,977.31
2022-11-25T06:55:03.549Z,977.26
2022-11-25T06:56:03.582Z,977.31
2022-11-25T06:57:03.618Z,977.31
2022-11-25T06:58:36.087Z,977.37
2022-11-25T06:59:03.601Z,977.31
2022-11-25T07:00:03.728Z,977.37
2022-11-25T07:01:03.562Z,977.42
2022-11-25T07:02:03.745Z,977.26
2022-11-25T07:03:03.699Z,977.34
2022-11-25T07:04:03.610Z,977.37
2022-11-25T07:05:03.514Z,977.34
2022-11-25T07:06:03.463Z,977.42
2022-11-25T07:07:03.418Z,977.42
2022-11-25T07:08:03.544Z,977.40
2022-11-25T07:09:03.388Z,977.54
2022-11-25T07:10:02.839Z,977.17
2022-11-25T07:11:02.889Z,977.37
2022-11-25T07:12:03.878Z,977.48
2022-11-25T07:13:03.766Z,977.31
2022-11-25T07:14:03.639Z,977.26
2022-11-25T07:15:03.767Z,977.40
2022-11-25T07:16:03.873Z,977.20
2022-11-25T07:17:12.098Z,977.31
2022-11-25T07:18:03.823Z,977.20
2022-11-25T07:19:03.703Z,977.26
2022-11-25T07:20:03.704Z,977.20
2022-11-25T07:21:03.595Z,977.28
2022-11-25T07:22:03.604Z,977.23
2022-11-25T07:23:03.598Z,977.20
2022-11-25T07:24:03.550Z,977.26
2022-11-25T07:25:03.735Z,977.28
2022-11-25T07:26:03.662Z,977.25
2022-11-25T07:27:03.744Z,977.28
2022-11-25T07:28:03.726Z,977.20
2022-11-25T07:29:03.716Z,977.34
2022-11-25T07:31:27.463Z,977.25
2022-11-25T07:31:27.471Z,977.11
2022-11-25T07:32:10.858Z,977.31
2022-11-25T07:33:03.567Z,977.31
2022-11-25T07:34:03.505Z,977.28
2022-11-25T07:35:03.422Z,977.22
2022-11-25T07:36:03.524Z,977.36
2022-11-25T07:37:03.558Z,977.30
2022-11-25T07:38:03.652Z,977.27
2022-11-25T07:39:03.653Z,977.27
2022-11-25T07:40:03.492Z,977.41
2022-11-25T07:41:03.428Z,977.30
2022-11-25T07:42:03.401Z,977.24
2022-11-25T07:43:03.338Z,977.21
2022-11-25T07:44:03.346Z,977.38
2022-11-25T07:45:03.343Z,977.30
2022-11-25T07:46:03.281Z,977.32
2022-11-25T07:47:03.174Z,977.29
2022-11-25T07:48:03.070Z,977.40
2022-11-25T07:49:03.019Z,977.24
2022-11-25T07:50:03.095Z,977.35
2022-11-25T07:51:03.101Z,977.23
2022-11-25T07:52:03.126Z,977.26
2022-11-25T07:53:03.162Z,977.18
2022-11-25T07:54:03.050Z,977.28
2022-11-25T07:55:03.067Z,977.45
2022-11-25T07:56:02.967Z,977.39
2022-11-25T07:57:03.018Z,977.36
2022-11-25T07:58:02.976Z,977.33
2022-11-25T07:59:02.902Z,977.30
2022-11-25T08:00:02.881Z,977.22
2022-11-25T08:01:02.913Z,977.47
2022-11-25T08:02:03.133Z,977.47
2022-11-25T08:03:03.080Z,977.41
2022-11-25T08:04:02.863Z,977.24
2022-11-25T08:05:02.990Z,977.41
2022-11-25T08:06:02.923Z,977.27
2022-11-25T08:07:02.967Z,977.49
2022-11-25T08:08:03.038Z,977.46
2022-11-25T08:09:02.908Z,977.37
2022-11-25T08:10:03.878Z,977.40
2022-11-25T08:11:03.779Z,977.43
2022-11-25T08:12:03.761Z,977.34
2022-11-25T08:13:03.733Z,977.40
2022-11-25T08:14:03.647Z,977.42
2022-11-25T08:15:03.695Z,977.45
2022-11-25T08:16:04.043Z,977.31
2022-11-25T08:17:02.956Z,977.28
2022-11-25T08:18:02.957Z,977.31
2022-11-25T08:19:02.943Z,977.50
2022-11-25T08:20:03.829Z,977.39
2022-11-25T08:21:03.791Z,977.56
2022-11-25T08:22:03.832Z,977.41
2022-11-25T08:23:02.868Z,977.47
2022-11-25T08:24:02.985Z,977.44
2022-11-25T08:25:02.896Z,977.49
2022-11-25T08:26:03.876Z,977.30
2022-11-25T08:27:03.903Z,977.41
2022-11-25T08:28:03.788Z,977.38
2022-11-25T08:29:03.691Z,977.38
2022-11-25T08:30:03.754Z,977.49
2022-11-25T08:31:03.716Z,977.40
2022-11-25T08:32:11.912Z,977.35
2022-11-25T08:33:03.569Z,977.48
2022-11-25T08:34:03.604Z,977.45
2022-11-25T08:35:03.334Z,977.51
2022-11-25T08:36:03.351Z,977.40
2022-11-25T08:37:03.294Z,977.48
2022-11-25T08:38:03.182Z,977.39
2022-11-25T08:39:12.824Z,977.31
2022-11-25T08:40:03.213Z,977.39
2022-11-25T08:41:03.164Z,977.47
2022-11-25T08:42:03.065Z,977.50
2022-11-25T08:43:02.999Z,977.35
2022-11-25T08:44:03.208Z,977.47
2022-11-25T08:45:03.060Z,977.44
2022-11-25T08:46:03.760Z,977.38
2022-11-25T08:47:03.731Z,977.32
2022-11-25T08:48:03.709Z,977.46
2022-11-25T08:49:03.658Z,977.40
2022-11-25T08:50:03.639Z,977.57
2022-11-25T08:51:03.554Z,977.34
2022-11-25T08:52:03.678Z,977.45
2022-11-25T08:53:03.599Z,977.36
2022-11-25T08:54:03.548Z,977.36
2022-11-25T08:55:02.956Z,977.39
2022-11-25T08:56:03.064Z,977.39
2022-11-25T08:57:02.931Z,977.47
2022-11-25T08:58:03.044Z,977.41
2022-11-25T08:59:03.028Z,977.19
2022-11-25T09:00:03.859Z,977.32
2022-11-25T09:01:02.836Z,977.57
2022-11-25T09:02:03.083Z,977.54
2022-11-25T09:03:04.910Z,977.32
2022-11-25T09:04:02.886Z,977.29
2022-11-25T09:05:03.881Z,977.43
2022-11-25T09:06:03.811Z,977.40
2022-11-25T09:07:03.745Z,977.48
2022-11-25T09:08:03.943Z,977.34
2022-11-25T09:09:03.739Z,977.39
2022-11-25T09:10:03.715Z,977.45
2022-11-25T09:11:03.919Z,977.36
2022-11-25T09:12:03.852Z,977.33
2022-11-25T09:13:02.917Z,977.38
2022-11-25T09:14:04.024Z,977.47
2022-11-25T09:15:03.827Z,977.46
2022-11-25T09:16:03.881Z,977.46
2022-11-25T09:17:03.972Z,977.49
2022-11-25T09:18:02.886Z,977.40
2022-11-25T09:19:02.929Z,977.34
2022-11-25T09:20:03.836Z,977.45
2022-11-25T09:21:03.892Z,977.53
2022-11-25T09:22:03.836Z,977.33
2022-11-25T09:23:03.805Z,977.33
2022-11-25T09:24:03.708Z,977.55
2022-11-25T09:25:03.823Z,977.47
2022-11-25T09:26:03.832Z,977.52
2022-11-25T09:27:03.694Z,977.46
2022-11-25T09:28:03.058Z,977.43
2022-11-25T09:29:02.875Z,977.43
2022-11-25T09:30:03.866Z,977.59
2022-11-25T09:31:03.934Z,977.59
2022-11-25T09:32:03.721Z,977.53
2022-11-25T09:33:03.752Z,977.50
2022-11-25T09:34:03.728Z,977.47
2022-11-25T09:35:03.808Z,977.58
2022-11-25T09:36:03.690Z,977.55
2022-11-25T09:37:03.630Z,977.52
2022-11-25T09:38:03.604Z,977.74
2022-11-25T09:39:03.709Z,977.71
2022-11-25T09:40:03.726Z,977.40
2022-11-25T09:41:03.747Z,977.43
2022-11-25T09:42:03.753Z,977.51
2022-11-25T09:43:03.706Z,977.48
2022-11-25T09:44:03.020Z,977.59
2022-11-25T09:45:03.021Z,977.69
2022-11-25T09:46:03.139Z,977.61
2022-11-25T09:47:03.012Z,977.72
2022-11-25T09:48:02.914Z,977.61
2022-11-25T09:49:03.148Z,977.61
2022-11-25T09:50:03.116Z,977.58
2022-11-25T09:51:03.091Z,977.61
2022-11-25T09:52:03.133Z,977.74
2022-11-25T09:53:03.033Z,977.52
2022-11-25T09:54:03.008Z,977.65
2022-11-25T09:55:03.011Z,977.73
2022-11-25T09:56:03.225Z,977.79
2022-11-25T09:57:03.264Z,977.73
2022-11-25T09:58:03.266Z,977.79
2022-11-25T09:59:03.196Z,977.73
2022-11-25T10:00:03.196Z,977.76
2022-11-25T10:01:03.229Z,977.79
2022-11-25T10:02:03.284Z,977.76
2022-11-25T10:03:03.363Z,977.84
2022-11-25T10:04:03.108Z,977.81
2022-11-25T10:05:08.274Z,977.81
2022-11-25T10:06:03.580Z,977.72
2022-11-25T10:07:03.373Z,977.69
2022-11-25T10:08:03.301Z,977.69
2022-11-25T10:09:03.331Z,977.75
2022-11-25T10:10:03.362Z,977.72
2022-11-25T10:11:03.410Z,977.75
2022-11-25T10:12:03.418Z,977.80
2022-11-25T10:13:03.422Z,977.80
2022-11-25T10:14:03.371Z,977.72
2022-11-25T10:15:03.308Z,977.80
2022-11-25T10:16:03.500Z,977.83
2022-11-25T10:17:03.374Z,977.86
2022-11-25T10:18:03.446Z,977.83
2022-11-25T10:19:03.534Z,977.71
2022-11-25T10:20:03.500Z,977.71
2022-11-25T10:21:03.391Z,977.74
2022-11-25T10:22:03.425Z,977.80
2022-11-25T10:23:03.380Z,977.77
2022-11-25T10:24:03.286Z,977.77
2022-11-25T10:25:03.000Z,977.68
2022-11-25T10:26:03.045Z,977.82
2022-11-25T10:27:02.943Z,977.82
2022-11-25T10:28:02.849Z,977.90
2022-11-25T10:29:03.880Z,977.76
2022-11-25T10:30:03.845Z,977.67
2022-11-25T10:31:02.972Z,977.79
2022-11-25T10:32:02.970Z,977.57
2022-11-25T10:33:03.086Z,977.75
2022-11-25T10:34:02.960Z,977.81
2022-11-25T10:35:02.984Z,977.75
2022-11-25T10:36:03.036Z,977.89
2022-11-25T10:37:02.959Z,977.86
2022-11-25T10:38:02.898Z,977.77
2022-11-25T10:39:03.849Z,977.89
2022-11-25T10:40:03.779Z,977.83
2022-11-25T10:41:03.882Z,977.86
2022-11-25T10:42:03.849Z,977.80
2022-11-25T10:43:03.845Z,977.83
2022-11-25T10:44:02.957Z,977.66
2022-11-25T10:45:03.799Z,977.65
2022-11-25T10:46:03.936Z,977.68
2022-11-25T10:47:15.608Z,977.58
2022-11-25T10:48:03.785Z,977.71
2022-11-25T10:49:03.757Z,977.68
2022-11-25T10:50:03.753Z,977.70
2022-11-25T10:51:03.669Z,977.60
2022-11-25T10:52:03.650Z,977.48
2022-11-25T10:53:03.809Z,977.59
2022-11-25T10:54:03.672Z,977.59
2022-11-25T10:55:03.656Z,977.54
2022-11-25T10:56:03.729Z,977.56
2022-11-25T10:57:03.763Z,977.59
2022-11-25T10:58:03.666Z,977.66
2022-11-25T10:59:03.563Z,977.66
2022-11-25T11:00:03.587Z,977.56
2022-11-25T11:01:03.543Z,977.59
2022-11-25T11:02:03.735Z,977.50
2022-11-25T11:03:03.636Z,977.69
2022-11-25T11:04:03.453Z,977.72
2022-11-25T11:05:03.419Z,977.58
2022-11-25T11:06:03.338Z,977.74
2022-11-25T11:07:03.303Z,977.68
2022-11-25T11:08:03.256Z,977.65
2022-11-25T11:09:03.296Z,977.71
2022-11-25T11:10:03.359Z,977.68
2022-11-25T11:11:03.234Z,977.71
2022-11-25T11:12:03.270Z,977.68
2022-11-25T11:13:03.120Z,977.68
2022-11-25T11:14:03.165Z,977.65
2022-11-25T11:15:03.086Z,977.68
2022-11-25T11:16:03.656Z,977.65
2022-11-25T11:17:03.442Z,977.67
2022-11-25T11:18:03.319Z,977.65
2022-11-25T11:19:03.595Z,977.60
2022-11-25T11:20:03.590Z,977.57
2022-11-25T11:21:03.686Z,977.60
2022-11-25T11:22:03.564Z,977.67
2022-11-25T11:23:09.467Z,977.79
2022-11-25T11:24:03.561Z,977.70
2022-11-25T11:25:03.501Z,977.70
2022-11-25T11:26:03.566Z,977.76
2022-11-25T11:27:03.597Z,977.81
2022-11-25T11:28:03.572Z,977.76
2022-11-25T11:29:03.460Z,977.76
2022-11-25T11:30:03.636Z,977.73
2022-11-25T11:31:03.660Z,977.93
2022-11-25T11:32:03.582Z,977.87
2022-11-25T11:33:03.493Z,977.79
2022-11-25T11:34:03.528Z,977.76
2022-11-25T11:35:03.484Z,977.68
2022-11-25T11:36:03.483Z,977.90
2022-11-25T11:37:03.357Z,977.82
2022-11-25T11:38:03.338Z,977.90
2022-11-25T11:39:03.288Z,977.96
2022-11-25T11:40:03.272Z,977.88
2022-11-25T11:41:03.173Z,977.88
2022-11-25T11:42:03.085Z,977.82
2022-11-25T11:43:03.065Z,977.82
2022-11-25T11:44:05.469Z,977.90
2022-11-25T11:45:03.308Z,977.87
2022-11-25T11:46:03.245Z,977.90
2022-11-25T11:47:03.422Z,977.79
2022-11-25T11:48:03.205Z,977.90
2022-11-25T11:49:03.213Z,977.81
2022-11-25T11:50:03.229Z,977.76
2022-11-25T11:51:03.530Z,977.73
2022-11-25T11:52:03.586Z,977.67
2022-11-25T11:53:03.626Z,977.70
2022-11-25T11:54:03.657Z,977.78
2022-11-25T11:55:03.528Z,977.78
2022-11-25T11:56:35.821Z,977.69
2022-11-25T11:57:03.399Z,977.67
2022-11-25T11:58:03.397Z,977.72
2022-11-25T11:59:03.277Z,977.67
2022-11-25T12:00:03.212Z,977.59
2022-11-25T12:01:03.212Z,977.67
2022-11-25T12:02:03.203Z,977.62
2022-11-25T12:03:03.331Z,977.67
2022-11-25T12:04:03.213Z,977.69
2022-11-25T12:05:03.207Z,977.78
2022-11-25T12:06:03.366Z,977.84
2022-11-25T12:07:03.359Z,977.62
2022-11-25T12:08:03.487Z,977.67
2022-11-25T12:09:03.367Z,977.56
2022-11-25T12:10:03.405Z,977.72
2022-11-25T12:11:03.326Z,977.62
2022-11-25T12:12:03.402Z,977.67
2022-11-25T12:13:03.531Z,977.67
2022-11-25T12:14:03.253Z,977.59
2022-11-25T12:15:03.337Z,977.59
2022-11-25T12:16:03.494Z,977.69
2022-11-25T12:17:03.297Z,977.72
2022-11-25T12:18:03.253Z,977.75
2022-11-25T12:19:03.264Z,977.75
2022-11-25T12:20:03.359Z,977.72
2022-11-25T12:21:03.346Z,977.72
2022-11-25T12:22:03.327Z,977.83
2022-11-25T12:23:03.368Z,977.86
2022-11-25T12:24:03.330Z,977.61
2022-11-25T12:25:03.360Z,977.72
2022-11-25T12:26:03.336Z,977.66
2022-11-25T12:27:03.336Z,977.66
2022-11-25T12:28:03.443Z,977.69